Time;durP1;ratioP1;P1;durP2;ratioP2;P2;SDS_P1;SDS_P2;PMS_P1;PMS_P2;Temp;Humidity;BMP_temperature;BMP_pressure;BME280_temperature;BME280_humidity;BME280_pressure;Samples;Min_cycle;Max_cycle;Signal;HPM_P1;HPM_P2
2022/01/21 00:01:50;;;;;;;15.77;2.55;;;;;;;;;;5067168;28;20048;-77
2022/01/21 00:04:16;;;;;;;14.05;2.25;;;;;;;;;;5050990;28;20052;-77
2022/01/21 00:06:42;;;;;;;11.77;1.83;;;;;;;;;;5066579;28;20048;-77
2022/01/21 00:09:08;;;;;;;12.45;1.52;;;;;;;;;;5067473;28;20420;-77
2022/01/21 00:11:36;;;;;;;15.35;1.83;;;;;;;;;;5066819;28;20052;-77
2022/01/21 00:14:02;;;;;;;13.07;1.40;;;;;;;;;;5051165;28;20055;-77
2022/01/21 00:16:29;;;;;;;13.50;1.85;;;;;;;;;;5050433;28;20063;-78
2022/01/21 00:19:00;;;;;;;15.27;1.88;;;;;;;;;;5067797;28;20086;-77
2022/01/21 00:32:27;;;;;;;18.63;2.25;;;;;;;;;;5071983;28;20059;-77
2022/01/21 00:34:53;;;;;;;12.82;1.77;;;;;;;;;;5070732;28;20476;-77
2022/01/21 00:37:19;;;;;;;14.75;1.83;;;;;;;;;;5070432;28;20653;-77
2022/01/21 00:39:52;;;;;;;16.35;2.08;;;;;;;;;;5070195;28;20041;-77
2022/01/21 00:44:46;;;;;;;12.10;1.60;;;;;;;;;;5069754;28;20098;-77
2022/01/21 00:47:13;;;;;;;14.88;2.20;;;;;;;;;;5053553;28;20047;-77
2022/01/21 00:49:39;;;;;;;17.30;1.80;;;;;;;;;;5053187;28;20063;-77
2022/01/21 00:52:05;;;;;;;16.23;1.70;;;;;;;;;;5070030;28;20079;-77
2022/01/21 00:54:31;;;;;;;14.85;1.63;;;;;;;;;;5069487;28;20048;-77
2022/01/21 00:56:57;;;;;;;18.48;1.95;;;;;;;;;;5070406;28;20516;-77
2022/01/21 00:59:23;;;;;;;14.52;1.88;;;;;;;;;;5053363;28;20167;-77
2022/01/21 01:01:49;;;;;;;15.30;1.80;;;;;;;;;;5069699;28;20400;-77
2022/01/21 01:04:15;;;;;;;14.30;1.65;;;;;;;;;;5036606;28;20040;-77
2022/01/21 01:06:42;;;;;;;10.63;1.70;;;;;;;;;;5068814;28;20105;-77
2022/01/21 01:09:08;;;;;;;8.90;1.30;;;;;;;;;;5068891;28;20052;-77
2022/01/21 01:22:18;;;;;;;11.98;1.50;;;;;;;;;;5069411;28;20052;-77
2022/01/21 01:29:56;;;;;;;8.45;1.30;;;;;;;;;;5069383;28;20131;-77
2022/01/21 01:32:23;;;;;;;10.23;1.42;;;;;;;;;;5068950;28;20048;-77
2022/01/21 01:34:49;;;;;;;9.00;1.38;;;;;;;;;;5068901;28;20052;-77
2022/01/21 01:37:31;;;;;;;16.13;1.90;;;;;;;;;;5069404;28;20055;-77
2022/01/21 01:43:07;;;;;;;10.50;1.77;;;;;;;;;;5068928;28;20048;-76
2022/01/21 01:50:51;;;;;;;11.25;1.42;;;;;;;;;;5068699;28;20403;-77
2022/01/21 01:53:19;;;;;;;7.53;1.45;;;;;;;;;;5052181;28;20037;-77
2022/01/21 01:55:45;;;;;;;10.10;1.40;;;;;;;;;;5051932;28;20503;-76
2022/01/21 01:58:14;;;;;;;8.00;1.17;;;;;;;;;;5068923;28;20045;-77
2022/01/21 02:00:40;;;;;;;6.80;1.33;;;;;;;;;;5049492;28;20045;-75
2022/01/21 02:03:07;;;;;;;12.63;1.20;;;;;;;;;;5082626;28;20506;-77
2022/01/21 02:05:33;;;;;;;7.95;1.50;;;;;;;;;;5049508;28;20041;-76
2022/01/21 02:07:59;;;;;;;12.70;1.27;;;;;;;;;;5048809;28;20052;-76
2022/01/21 02:10:25;;;;;;;10.27;1.00;;;;;;;;;;5048770;28;20614;-77
2022/01/21 02:13:02;;;;;;;10.05;1.27;;;;;;;;;;5049830;28;20696;-76
2022/01/21 02:15:28;;;;;;;5.15;1.33;;;;;;;;;;5048571;28;20044;-77
2022/01/21 02:23:26;;;;;;;12.50;1.30;;;;;;;;;;5048547;28;20053;-77
2022/01/21 02:25:52;;;;;;;5.45;0.85;;;;;;;;;;5048209;28;20378;-77
2022/01/21 02:28:19;;;;;;;7.18;1.88;;;;;;;;;;5048281;28;20041;-77
2022/01/21 02:30:54;;;;;;;13.73;1.45;;;;;;;;;;5048259;28;20505;-77
2022/01/21 02:33:20;;;;;;;10.52;1.25;;;;;;;;;;5048434;28;20037;-76
2022/01/21 02:35:46;;;;;;;12.52;1.55;;;;;;;;;;5047618;28;20037;-77
2022/01/21 02:38:13;;;;;;;9.93;1.60;;;;;;;;;;5048359;28;20046;-77
2022/01/21 02:40:39;;;;;;;12.60;1.60;;;;;;;;;;5047829;28;20056;-77
2022/01/21 02:43:05;;;;;;;13.35;1.40;;;;;;;;;;5048117;28;20123;-77
2022/01/21 02:45:31;;;;;;;7.50;0.98;;;;;;;;;;5047412;28;20452;-77
2022/01/21 02:47:57;;;;;;;12.60;1.83;;;;;;;;;;5047903;28;20386;-77
2022/01/21 02:50:23;;;;;;;14.13;1.55;;;;;;;;;;5050116;28;20374;-77
2022/01/21 02:53:08;;;;;;;12.30;1.10;;;;;;;;;;5069085;28;20060;-77
2022/01/21 02:55:34;;;;;;;12.15;1.50;;;;;;;;;;5067414;28;20048;-77
2022/01/21 02:58:00;;;;;;;12.65;1.23;;;;;;;;;;5068130;28;20044;-77
2022/01/21 03:00:27;;;;;;;10.32;1.15;;;;;;;;;;5067658;28;20086;-77
2022/01/21 03:02:53;;;;;;;8.90;1.80;;;;;;;;;;5046831;28;20032;-77
2022/01/21 03:05:20;;;;;;;11.63;1.80;;;;;;;;;;5066662;28;20046;-76
2022/01/21 03:07:47;;;;;;;12.00;1.65;;;;;;;;;;5066478;28;20064;-77
2022/01/21 03:10:14;;;;;;;14.23;2.00;;;;;;;;;;5067682;28;20079;-77
2022/01/21 03:12:40;;;;;;;16.60;1.50;;;;;;;;;;5069062;28;20048;-77
2022/01/21 03:15:07;;;;;;;12.30;1.40;;;;;;;;;;5068075;28;20113;-77
2022/01/21 03:17:33;;;;;;;22.70;1.77;;;;;;;;;;5067539;28;20033;-77
2022/01/21 03:19:59;;;;;;;14.82;1.35;;;;;;;;;;5067679;28;20036;-77
2022/01/21 03:22:26;;;;;;;9.32;1.05;;;;;;;;;;5067574;28;20082;-76
2022/01/21 03:24:52;;;;;;;12.18;1.50;;;;;;;;;;5067452;28;20404;-76
2022/01/21 03:27:18;;;;;;;9.25;1.63;;;;;;;;;;5051117;28;20083;-76
2022/01/21 03:29:44;;;;;;;12.90;1.55;;;;;;;;;;5068658;28;20544;-76
2022/01/21 03:32:10;;;;;;;10.80;1.30;;;;;;;;;;5067736;28;20045;-76
2022/01/21 03:34:37;;;;;;;11.70;1.45;;;;;;;;;;5067300;28;20041;-76
2022/01/21 03:37:03;;;;;;;14.82;1.10;;;;;;;;;;5067722;28;20083;-77
2022/01/21 03:39:29;;;;;;;11.63;1.20;;;;;;;;;;5067928;28;20121;-76
2022/01/21 03:41:55;;;;;;;14.05;1.73;;;;;;;;;;5050704;28;20040;-77
2022/01/21 03:44:21;;;;;;;13.55;1.55;;;;;;;;;;5067351;28;20115;-77
2022/01/21 03:46:47;;;;;;;14.13;1.27;;;;;;;;;;5067129;28;20049;-76
2022/01/21 03:49:14;;;;;;;9.23;1.27;;;;;;;;;;5069085;28;20129;-76
2022/01/21 03:51:40;;;;;;;11.15;1.10;;;;;;;;;;5066834;28;20046;-76
2022/01/21 03:54:06;;;;;;;8.95;1.00;;;;;;;;;;5067490;28;20051;-77
2022/01/21 03:56:32;;;;;;;8.98;1.10;;;;;;;;;;5069380;28;20044;-77
2022/01/21 03:58:58;;;;;;;12.30;1.10;;;;;;;;;;5054317;28;20048;-77
2022/01/21 04:01:25;;;;;;;8.88;1.10;;;;;;;;;;5054672;28;20051;-77
2022/01/21 04:03:52;;;;;;;14.00;1.23;;;;;;;;;;5070831;28;20453;-77
2022/01/21 04:06:18;;;;;;;8.98;1.95;;;;;;;;;;5053609;28;20056;-77
2022/01/21 04:08:44;;;;;;;8.85;1.08;;;;;;;;;;5070529;28;20139;-77
2022/01/21 04:11:10;;;;;;;7.18;1.67;;;;;;;;;;5071150;28;20532;-77
2022/01/21 04:13:36;;;;;;;10.80;1.30;;;;;;;;;;5053727;28;20044;-77
2022/01/21 04:16:03;;;;;;;12.40;1.20;;;;;;;;;;5054123;28;20098;-77
2022/01/21 04:18:30;;;;;;;10.02;1.63;;;;;;;;;;5070895;28;20072;-77
2022/01/21 04:20:57;;;;;;;11.55;1.52;;;;;;;;;;5070064;28;20045;-77
2022/01/21 04:23:23;;;;;;;11.82;1.48;;;;;;;;;;5071124;28;20361;-77
2022/01/21 04:25:50;;;;;;;13.93;1.13;;;;;;;;;;5070399;28;20036;-77
2022/01/21 04:28:16;;;;;;;8.80;1.05;;;;;;;;;;5070323;28;20076;-77
2022/01/21 04:30:42;;;;;;;9.13;1.52;;;;;;;;;;5070699;28;20040;-77
2022/01/21 04:33:08;;;;;;;10.73;0.90;;;;;;;;;;5070011;28;20068;-77
2022/01/21 04:35:35;;;;;;;5.25;0.95;;;;;;;;;;5069543;28;20133;-77
2022/01/21 04:38:04;;;;;;;11.38;1.73;;;;;;;;;;5070807;28;20503;-77
2022/01/21 04:40:34;;;;;;;12.02;1.38;;;;;;;;;;5070756;28;20044;-77
2022/01/21 04:48:30;;;;;;;12.23;1.55;;;;;;;;;;5070248;28;20083;-77
2022/01/21 04:51:00;;;;;;;13.52;1.30;;;;;;;;;;5069350;28;20033;-77
2022/01/21 04:53:26;;;;;;;6.15;0.95;;;;;;;;;;5053739;28;20389;-77
2022/01/21 04:55:53;;;;;;;8.75;1.30;;;;;;;;;;5053346;28;20498;-76
2022/01/21 04:58:20;;;;;;;9.65;1.25;;;;;;;;;;5070042;28;20135;-77
2022/01/21 05:00:46;;;;;;;9.85;0.90;;;;;;;;;;5053240;28;20036;-77
2022/01/21 05:03:12;;;;;;;9.27;1.20;;;;;;;;;;5053457;28;20070;-77
2022/01/21 05:05:39;;;;;;;9.25;1.65;;;;;;;;;;5069559;28;20045;-77
2022/01/21 05:08:09;;;;;;;12.38;1.80;;;;;;;;;;5068835;28;20044;-77
2022/01/21 05:10:36;;;;;;;16.90;1.52;;;;;;;;;;5069861;28;20059;-77
2022/01/21 05:13:03;;;;;;;10.45;1.23;;;;;;;;;;5069726;28;20045;-77
2022/01/21 05:15:57;;;;;;;11.70;1.95;;;;;;;;;;5069935;28;20048;-77
2022/01/21 05:18:15;;;;;;;10.30;1.40;;;;;;;;;;5069598;28;20489;-77
2022/01/21 05:20:41;;;;;;;14.32;1.48;;;;;;;;;;5069288;28;20044;-77
2022/01/21 05:23:07;;;;;;;13.18;1.92;;;;;;;;;;5069640;28;20048;-77
2022/01/21 05:25:33;;;;;;;13.75;1.63;;;;;;;;;;5052786;28;20052;-77
2022/01/21 05:28:00;;;;;;;9.50;0.93;;;;;;;;;;5068932;28;20563;-77
2022/01/21 05:30:27;;;;;;;12.40;1.35;;;;;;;;;;5069776;28;20047;-77
2022/01/21 05:32:53;;;;;;;10.23;1.52;;;;;;;;;;5052780;28;20045;-77
2022/01/21 05:35:19;;;;;;;9.38;1.70;;;;;;;;;;5069527;28;20472;-77
2022/01/21 05:37:45;;;;;;;14.63;1.42;;;;;;;;;;5068737;28;20052;-77
2022/01/21 05:40:14;;;;;;;11.32;2.08;;;;;;;;;;5068878;28;20076;-77
2022/01/21 05:42:40;;;;;;;11.02;1.30;;;;;;;;;;5068351;28;20094;-77
2022/01/21 05:47:36;;;;;;;15.52;1.23;;;;;;;;;;5068695;28;20135;-77
2022/01/21 05:50:02;;;;;;;13.73;1.50;;;;;;;;;;5068914;28;20104;-77
2022/01/21 05:52:36;;;;;;;7.15;1.15;;;;;;;;;;5068745;28;20123;-77
2022/01/21 05:55:02;;;;;;;14.40;1.52;;;;;;;;;;5069003;28;20051;-77
2022/01/21 05:57:30;;;;;;;13.63;1.50;;;;;;;;;;5068886;28;20551;-77
2022/01/21 05:59:56;;;;;;;9.85;1.52;;;;;;;;;;5068524;28;20098;-77
2022/01/21 06:02:22;;;;;;;17.35;1.52;;;;;;;;;;5070043;28;20047;-77
2022/01/21 06:04:50;;;;;;;7.28;1.42;;;;;;;;;;5052256;28;20388;-77
2022/01/21 06:07:16;;;;;;;10.88;1.63;;;;;;;;;;5052370;28;20053;-77
2022/01/21 06:09:43;;;;;;;10.70;1.33;;;;;;;;;;5067812;28;20064;-77
2022/01/21 06:12:10;;;;;;;11.25;1.65;;;;;;;;;;5051559;28;20047;-77
2022/01/21 06:14:37;;;;;;;11.95;1.55;;;;;;;;;;5068824;28;20090;-77
2022/01/21 06:17:03;;;;;;;9.80;1.23;;;;;;;;;;5069672;28;20041;-77
2022/01/21 06:19:29;;;;;;;14.55;1.70;;;;;;;;;;5051374;28;20556;-77
2022/01/21 06:21:55;;;;;;;16.73;1.58;;;;;;;;;;5067842;28;20124;-77
2022/01/21 06:24:21;;;;;;;9.50;1.40;;;;;;;;;;5051877;28;20407;-77
2022/01/21 06:26:47;;;;;;;10.80;1.50;;;;;;;;;;5068324;28;20037;-77
2022/01/21 06:29:14;;;;;;;10.18;1.13;;;;;;;;;;5068330;28;20040;-77
2022/01/21 06:31:40;;;;;;;9.00;1.55;;;;;;;;;;5068024;28;20048;-77
2022/01/21 06:34:06;;;;;;;17.67;1.38;;;;;;;;;;5068360;28;20119;-77
2022/01/21 06:36:32;;;;;;;7.45;0.88;;;;;;;;;;5050995;28;20068;-77
2022/01/21 06:38:58;;;;;;;12.70;1.25;;;;;;;;;;5067159;28;20044;-77
2022/01/21 06:41:24;;;;;;;10.98;1.30;;;;;;;;;;5068396;28;20032;-77
2022/01/21 06:43:50;;;;;;;9.40;1.27;;;;;;;;;;5051319;28;20072;-77
2022/01/21 06:46:16;;;;;;;12.23;1.50;;;;;;;;;;5068477;28;20127;-77
2022/01/21 06:48:42;;;;;;;8.50;1.10;;;;;;;;;;5067451;28;20123;-77
2022/01/21 06:51:09;;;;;;;13.00;1.30;;;;;;;;;;5068157;28;20900;-77
2022/01/21 06:53:35;;;;;;;9.75;1.40;;;;;;;;;;5068204;28;20400;-77
2022/01/21 06:56:01;;;;;;;8.88;1.95;;;;;;;;;;5050930;28;20119;-77
2022/01/21 06:58:27;;;;;;;12.70;1.95;;;;;;;;;;5068121;28;20048;-77
2022/01/21 07:00:53;;;;;;;12.52;2.10;;;;;;;;;;5067761;28;20040;-78
2022/01/21 07:03:19;;;;;;;13.30;1.35;;;;;;;;;;5067972;28;20043;-77
2022/01/21 07:05:46;;;;;;;12.15;1.65;;;;;;;;;;5050407;28;20203;-77
2022/01/21 07:08:14;;;;;;;12.13;1.88;;;;;;;;;;5067439;28;20381;-77
2022/01/21 07:10:41;;;;;;;15.85;1.50;;;;;;;;;;5034389;28;20131;-77
2022/01/21 07:13:07;;;;;;;7.43;1.40;;;;;;;;;;5067960;28;20044;-77
2022/01/21 07:15:33;;;;;;;10.13;1.98;;;;;;;;;;5067665;28;20036;-77
2022/01/21 07:17:59;;;;;;;12.00;1.50;;;;;;;;;;5067424;28;20090;-77
2022/01/21 07:20:25;;;;;;;10.55;1.65;;;;;;;;;;5067667;28;20047;-77
2022/01/21 07:22:51;;;;;;;9.05;1.25;;;;;;;;;;5067650;28;20491;-77
2022/01/21 07:25:17;;;;;;;10.90;1.52;;;;;;;;;;5051084;28;20043;-77
2022/01/21 07:27:44;;;;;;;11.32;2.00;;;;;;;;;;5067444;28;20087;-77
2022/01/21 07:30:12;;;;;;;14.57;2.58;;;;;;;;;;5067932;28;20044;-77
2022/01/21 07:32:38;;;;;;;12.10;1.60;;;;;;;;;;5071718;28;20036;-77
2022/01/21 07:35:07;;;;;;;9.95;1.30;;;;;;;;;;5054683;28;20052;-77
2022/01/21 07:37:33;;;;;;;8.02;2.15;;;;;;;;;;5071541;28;20052;-77
2022/01/21 07:39:59;;;;;;;11.60;1.45;;;;;;;;;;5071241;28;20048;-77
2022/01/21 07:42:27;;;;;;;16.45;1.70;;;;;;;;;;5055016;28;20040;-77
2022/01/21 07:44:53;;;;;;;17.80;1.88;;;;;;;;;;5072313;28;20124;-77
2022/01/21 07:47:19;;;;;;;14.63;1.65;;;;;;;;;;5071397;28;20048;-77
2022/01/21 07:49:45;;;;;;;11.63;1.40;;;;;;;;;;5071224;28;20495;-77
2022/01/21 07:52:11;;;;;;;12.07;1.80;;;;;;;;;;5071331;28;20499;-78
2022/01/21 07:54:38;;;;;;;16.63;2.03;;;;;;;;;;5053888;28;20049;-77
2022/01/21 07:57:04;;;;;;;18.95;2.42;;;;;;;;;;5070653;28;20040;-77
2022/01/21 07:59:30;;;;;;;12.82;2.58;;;;;;;;;;5070863;28;20044;-77
2022/01/21 08:01:57;;;;;;;15.10;2.90;;;;;;;;;;5070681;28;20040;-77
2022/01/21 08:04:23;;;;;;;11.73;2.08;;;;;;;;;;5054650;28;20048;-77
2022/01/21 08:06:49;;;;;;;14.13;1.70;;;;;;;;;;5070910;28;20496;-77
2022/01/21 08:09:16;;;;;;;17.00;2.58;;;;;;;;;;5071062;28;20056;-77
2022/01/21 08:11:42;;;;;;;14.10;2.15;;;;;;;;;;5071804;28;20492;-77
2022/01/21 08:14:08;;;;;;;11.32;1.83;;;;;;;;;;5070692;28;20041;-78
2022/01/21 08:16:36;;;;;;;13.52;2.67;;;;;;;;;;5054411;28;20040;-77
2022/01/21 08:19:03;;;;;;;10.18;2.17;;;;;;;;;;5070546;28;20396;-78
2022/01/21 08:21:29;;;;;;;11.25;1.90;;;;;;;;;;5072336;28;20514;-78
2022/01/21 08:23:56;;;;;;;10.05;1.90;;;;;;;;;;5070482;28;20109;-78
2022/01/21 08:26:27;;;;;;;13.25;1.95;;;;;;;;;;5070676;28;20041;-78
2022/01/21 08:28:54;;;;;;;13.85;2.45;;;;;;;;;;5070155;28;20048;-78
2022/01/21 08:31:20;;;;;;;10.85;2.45;;;;;;;;;;5070585;28;20048;-78
2022/01/21 08:33:46;;;;;;;12.43;1.90;;;;;;;;;;5070345;28;20040;-75
2022/01/21 08:36:13;;;;;;;11.48;1.80;;;;;;;;;;5037653;28;20392;-76
2022/01/21 08:38:39;;;;;;;9.77;2.10;;;;;;;;;;5054238;28;20492;-76
2022/01/21 08:41:05;;;;;;;10.85;2.90;;;;;;;;;;5070325;28;20048;-77
2022/01/21 08:43:31;;;;;;;14.45;1.98;;;;;;;;;;5052822;28;20441;-77
2022/01/21 08:45:58;;;;;;;15.15;1.90;;;;;;;;;;5071304;28;20043;-77
2022/01/21 08:48:24;;;;;;;10.57;1.50;;;;;;;;;;5070236;28;20098;-77
2022/01/21 08:50:50;;;;;;;13.63;2.72;;;;;;;;;;5069605;28;20047;-77
2022/01/21 08:56:01;;;;;;;11.18;2.53;;;;;;;;;;5068649;28;20051;-77
2022/01/21 08:58:27;;;;;;;12.98;3.05;;;;;;;;;;5072092;28;20079;-77
2022/01/21 09:00:54;;;;;;;13.65;2.88;;;;;;;;;;5069447;28;20032;-77
2022/01/21 09:03:20;;;;;;;14.70;2.67;;;;;;;;;;5070541;28;20822;-77
2022/01/21 09:05:49;;;;;;;8.45;2.10;;;;;;;;;;5069793;28;20121;-77
2022/01/21 09:08:25;;;;;;;15.23;1.67;;;;;;;;;;5070077;28;20511;-77
2022/01/21 09:10:52;;;;;;;12.38;1.85;;;;;;;;;;5053085;28;20060;-77
2022/01/21 09:13:19;;;;;;;14.73;1.65;;;;;;;;;;5053178;28;20041;-77
2022/01/21 09:15:45;;;;;;;10.68;1.60;;;;;;;;;;5069542;28;20127;-77
2022/01/21 09:18:17;;;;;;;12.57;1.70;;;;;;;;;;5053792;28;20412;-77
2022/01/21 09:20:43;;;;;;;8.38;1.65;;;;;;;;;;5053395;28;20056;-77
2022/01/21 09:23:09;;;;;;;16.48;1.70;;;;;;;;;;5069691;28;20072;-77
2022/01/21 09:25:35;;;;;;;17.10;1.98;;;;;;;;;;5069706;28;20044;-77
2022/01/21 09:28:01;;;;;;;10.35;1.60;;;;;;;;;;5052737;28;20375;-78
2022/01/21 09:30:28;;;;;;;11.52;1.90;;;;;;;;;;5069688;28;20047;-77
2022/01/21 09:32:54;;;;;;;17.75;2.10;;;;;;;;;;5069689;28;20450;-77
2022/01/21 09:35:20;;;;;;;12.40;2.45;;;;;;;;;;5071034;28;20068;-77
2022/01/21 09:37:46;;;;;;;13.23;1.73;;;;;;;;;;5052599;28;20040;-77
2022/01/21 09:40:13;;;;;;;16.92;1.50;;;;;;;;;;5052800;28;20041;-77
2022/01/21 09:42:39;;;;;;;12.75;1.88;;;;;;;;;;5052252;28;20040;-77
2022/01/21 09:45:09;;;;;;;14.70;1.98;;;;;;;;;;5068995;28;20400;-77
2022/01/21 09:47:45;;;;;;;15.30;1.88;;;;;;;;;;5069329;28;20048;-77
2022/01/21 09:50:11;;;;;;;12.50;1.92;;;;;;;;;;5068739;28;20071;-77
2022/01/21 09:52:38;;;;;;;19.65;2.22;;;;;;;;;;5069419;28;20120;-77
2022/01/21 09:55:04;;;;;;;17.27;3.03;;;;;;;;;;5068701;28;20479;-77
2022/01/21 09:57:32;;;;;;;10.38;2.25;;;;;;;;;;5051989;28;20044;-78
2022/01/21 09:59:59;;;;;;;12.95;1.95;;;;;;;;;;5068495;28;20064;-78
2022/01/21 10:02:29;;;;;;;15.55;1.85;;;;;;;;;;5068969;28;20098;-77
2022/01/21 10:04:56;;;;;;;17.02;2.38;;;;;;;;;;5068290;28;20044;-77
2022/01/21 10:07:23;;;;;;;13.57;1.90;;;;;;;;;;5068730;28;20075;-77
2022/01/21 10:09:50;;;;;;;13.55;2.00;;;;;;;;;;5068620;28;20051;-78
2022/01/21 10:12:16;;;;;;;11.80;2.05;;;;;;;;;;5052115;28;20475;-77
2022/01/21 10:14:43;;;;;;;12.80;1.92;;;;;;;;;;5068385;28;20123;-77
2022/01/21 10:17:09;;;;;;;18.15;2.22;;;;;;;;;;5068544;28;20514;-77
2022/01/21 10:19:36;;;;;;;18.95;2.08;;;;;;;;;;5068881;28;20102;-77
2022/01/21 10:22:03;;;;;;;10.35;1.90;;;;;;;;;;5068060;28;20074;-77
2022/01/21 10:24:30;;;;;;;11.52;1.40;;;;;;;;;;5068557;28;20048;-77
2022/01/21 10:26:57;;;;;;;13.80;1.70;;;;;;;;;;5068242;28;20571;-77
2022/01/21 10:29:24;;;;;;;14.50;2.30;;;;;;;;;;5051767;28;20076;-77
2022/01/21 10:31:53;;;;;;;15.43;1.90;;;;;;;;;;5051169;28;20041;-78
2022/01/21 10:34:29;;;;;;;16.08;2.20;;;;;;;;;;5051614;28;20052;-78
2022/01/21 10:37:06;;;;;;;15.38;1.95;;;;;;;;;;5067935;28;20430;-78
2022/01/21 10:39:34;;;;;;;11.82;1.73;;;;;;;;;;5068408;28;20079;-77
2022/01/21 10:42:01;;;;;;;13.43;1.95;;;;;;;;;;5067735;28;20036;-77
2022/01/21 10:44:30;;;;;;;12.45;2.00;;;;;;;;;;5067821;28;20055;-77
2022/01/21 10:47:09;;;;;;;17.02;2.17;;;;;;;;;;5067737;28;20107;-77
2022/01/21 10:49:39;;;;;;;14.90;2.30;;;;;;;;;;5069474;28;20040;-77
2022/01/21 10:52:06;;;;;;;15.95;2.28;;;;;;;;;;5067903;28;20036;-77
2022/01/21 10:54:32;;;;;;;16.55;2.10;;;;;;;;;;5067932;28;20047;-77
2022/01/21 10:57:03;;;;;;;16.65;2.30;;;;;;;;;;5067642;28;20048;-78
2022/01/21 10:59:46;;;;;;;15.10;2.35;;;;;;;;;;5068112;28;20051;-77
2022/01/21 11:02:13;;;;;;;12.65;2.30;;;;;;;;;;5069034;28;20378;-77
2022/01/21 11:04:43;;;;;;;12.30;2.40;;;;;;;;;;5051489;28;20396;-77
2022/01/21 11:07:11;;;;;;;9.32;1.92;;;;;;;;;;5068917;28;20052;-77
2022/01/21 11:09:38;;;;;;;13.90;2.45;;;;;;;;;;5068228;28;20052;-77
2022/01/21 11:12:10;;;;;;;11.38;1.70;;;;;;;;;;5067556;28;20048;-77
2022/01/21 11:14:37;;;;;;;13.32;2.08;;;;;;;;;;5051139;28;20507;-77
2022/01/21 11:17:16;;;;;;;16.83;2.10;;;;;;;;;;5067062;28;20048;-78
2022/01/21 11:20:00;;;;;;;10.05;1.60;;;;;;;;;;5067890;28;20049;-77
2022/01/21 11:22:26;;;;;;;10.57;2.08;;;;;;;;;;5067717;28;20033;-77
2022/01/21 11:24:55;;;;;;;11.75;2.00;;;;;;;;;;5067238;28;20123;-77
2022/01/21 11:27:21;;;;;;;14.90;2.20;;;;;;;;;;5051007;28;20044;-77
2022/01/21 11:29:48;;;;;;;14.85;1.85;;;;;;;;;;5050768;28;20442;-78
2022/01/21 11:32:17;;;;;;;10.73;2.05;;;;;;;;;;5067478;28;20079;-78
2022/01/21 11:34:43;;;;;;;16.45;2.00;;;;;;;;;;5067621;28;20484;-77
2022/01/21 11:37:10;;;;;;;13.75;1.77;;;;;;;;;;5051080;28;20056;-77
2022/01/21 11:39:36;;;;;;;15.15;1.75;;;;;;;;;;5068174;28;20495;-77
2022/01/21 11:42:04;;;;;;;18.63;1.98;;;;;;;;;;5068319;28;20115;-77
2022/01/21 11:44:32;;;;;;;12.73;2.00;;;;;;;;;;5067485;28;20051;-77
2022/01/21 11:47:13;;;;;;;15.82;1.75;;;;;;;;;;5066847;28;20048;-77
2022/01/21 11:49:40;;;;;;;10.20;1.40;;;;;;;;;;5067950;28;20437;-77
2022/01/21 11:52:13;;;;;;;14.00;1.75;;;;;;;;;;5067073;28;20036;-77
2022/01/21 11:54:39;;;;;;;8.88;1.88;;;;;;;;;;5051008;28;20072;-77
2022/01/21 11:57:06;;;;;;;7.82;1.30;;;;;;;;;;5066901;28;20044;-77
2022/01/21 12:01:59;;;;;;;10.20;2.10;;;;;;;;;;5066630;28;20045;-77
2022/01/21 12:04:31;;;;;;;15.20;3.63;;;;;;;;;;5067651;28;20446;-77
2022/01/21 12:06:58;;;;;;;13.05;4.28;;;;;;;;;;5067001;28;20485;-77
2022/01/21 12:09:43;;;;;;;14.05;3.72;;;;;;;;;;5067441;28;20053;-77
2022/01/21 12:12:09;;;;;;;18.65;3.85;;;;;;;;;;5067200;28;20044;-77
2022/01/21 12:14:43;;;;;;;16.40;3.97;;;;;;;;;;5067130;28;20052;-77
2022/01/21 12:17:19;;;;;;;13.20;3.08;;;;;;;;;;5068643;28;20049;-77
2022/01/21 12:19:45;;;;;;;12.10;2.20;;;;;;;;;;5070444;28;20137;-77
2022/01/21 12:22:20;;;;;;;10.98;1.80;;;;;;;;;;5071011;28;20051;-77
2022/01/21 12:24:48;;;;;;;14.30;2.38;;;;;;;;;;5070787;28;20614;-77
2022/01/21 12:27:14;;;;;;;10.20;1.70;;;;;;;;;;5070947;28;20106;-77
2022/01/21 12:29:41;;;;;;;13.07;1.75;;;;;;;;;;5070895;28;20040;-77
2022/01/21 12:32:23;;;;;;;22.60;2.20;;;;;;;;;;5053788;28;20063;-77
2022/01/21 12:35:14;;;;;;;11.32;1.58;;;;;;;;;;5070137;28;20041;-77
2022/01/21 12:38:05;;;;;;;12.73;1.83;;;;;;;;;;5071812;28;20052;-77
2022/01/21 12:40:32;;;;;;;12.32;2.20;;;;;;;;;;5070352;28;20040;-77
2022/01/21 12:42:58;;;;;;;17.40;2.03;;;;;;;;;;5053243;28;20082;-77
2022/01/21 12:45:25;;;;;;;14.07;1.63;;;;;;;;;;5070305;28;20083;-77
2022/01/21 12:47:51;;;;;;;12.65;1.90;;;;;;;;;;5053437;28;20052;-77
2022/01/21 12:58:06;;;;;;;18.75;2.25;;;;;;;;;;5071059;28;20055;-77
2022/01/21 13:00:32;;;;;;;13.18;1.80;;;;;;;;;;5069865;28;20044;-77
2022/01/21 13:03:04;;;;;;;12.52;2.17;;;;;;;;;;5053077;28;20040;-77
2022/01/21 13:05:38;;;;;;;15.88;1.98;;;;;;;;;;5069896;28;20045;-77
2022/01/21 13:08:22;;;;;;;15.82;1.67;;;;;;;;;;5052443;28;20049;-77
2022/01/21 13:10:48;;;;;;;18.73;2.40;;;;;;;;;;5052852;28;20060;-77
2022/01/21 13:13:18;;;;;;;15.50;1.85;;;;;;;;;;5070192;28;20123;-77
2022/01/21 13:15:49;;;;;;;20.90;2.25;;;;;;;;;;5069890;28;20048;-77
2022/01/21 13:18:18;;;;;;;14.57;1.92;;;;;;;;;;5069388;28;20508;-77
2022/01/21 13:20:49;;;;;;;10.70;1.48;;;;;;;;;;5053023;28;20040;-77
2022/01/21 13:23:36;;;;;;;15.18;2.58;;;;;;;;;;5070218;28;20485;-77
2022/01/21 13:26:09;;;;;;;15.50;2.20;;;;;;;;;;5069249;28;20051;-77
2022/01/21 13:28:35;;;;;;;12.93;1.90;;;;;;;;;;5070332;28;20115;-77
2022/01/21 13:31:04;;;;;;;16.05;2.72;;;;;;;;;;5069028;28;20043;-77
2022/01/21 13:33:30;;;;;;;15.18;2.65;;;;;;;;;;5069235;28;20094;-77
2022/01/21 13:35:58;;;;;;;12.40;1.85;;;;;;;;;;5068853;28;20071;-77
2022/01/21 13:38:24;;;;;;;15.77;1.92;;;;;;;;;;5053250;28;20056;-77
2022/01/21 13:40:57;;;;;;;19.67;3.20;;;;;;;;;;5052347;28;20049;-77
2022/01/21 13:43:24;;;;;;;15.32;2.08;;;;;;;;;;5069266;28;20044;-77
2022/01/21 13:45:59;;;;;;;18.38;1.73;;;;;;;;;;5068615;28;20045;-77
2022/01/21 13:48:25;;;;;;;16.65;2.17;;;;;;;;;;5069244;28;20048;-77
2022/01/21 13:50:52;;;;;;;17.02;2.03;;;;;;;;;;5068721;28;20523;-77
2022/01/21 13:53:18;;;;;;;21.00;2.42;;;;;;;;;;5052493;28;20105;-77
2022/01/21 13:55:46;;;;;;;14.50;1.83;;;;;;;;;;5069395;28;20377;-77
2022/01/21 13:58:14;;;;;;;14.38;2.15;;;;;;;;;;5068839;28;20036;-77
2022/01/21 14:00:42;;;;;;;17.10;2.38;;;;;;;;;;5068909;28;20044;-77
2022/01/21 14:03:16;;;;;;;10.50;1.73;;;;;;;;;;5068330;28;20555;-77
2022/01/21 14:05:43;;;;;;;20.10;3.53;;;;;;;;;;5068937;28;20086;-77
2022/01/21 14:08:10;;;;;;;13.65;2.70;;;;;;;;;;5051778;28;20135;-77
2022/01/21 14:10:36;;;;;;;16.95;2.65;;;;;;;;;;5052088;28;20135;-77
2022/01/21 14:13:03;;;;;;;11.63;1.88;;;;;;;;;;5068063;28;20051;-77
2022/01/21 14:15:32;;;;;;;17.27;2.42;;;;;;;;;;5068539;28;20067;-77
2022/01/21 14:17:59;;;;;;;21.45;3.47;;;;;;;;;;5067914;28;20488;-77
2022/01/21 14:20:25;;;;;;;16.08;2.08;;;;;;;;;;5052134;28;20442;-77
2022/01/21 14:22:51;;;;;;;15.15;1.90;;;;;;;;;;5068624;28;20087;-77
2022/01/21 14:25:17;;;;;;;18.33;1.88;;;;;;;;;;5068820;28;20047;-77
2022/01/21 14:27:48;;;;;;;19.95;2.22;;;;;;;;;;5068440;28;20041;-77
2022/01/21 14:30:15;;;;;;;19.42;2.25;;;;;;;;;;5068475;28;20048;-77
2022/01/21 14:32:42;;;;;;;18.95;2.20;;;;;;;;;;5068597;28;20399;-77
2022/01/21 14:35:14;;;;;;;19.00;2.75;;;;;;;;;;5051071;28;20040;-77
2022/01/21 14:37:53;;;;;;;11.80;2.30;;;;;;;;;;5051760;28;20110;-77
2022/01/21 14:40:25;;;;;;;14.57;3.03;;;;;;;;;;5051035;28;20122;-77
2022/01/21 14:43:01;;;;;;;19.40;2.80;;;;;;;;;;5068137;28;20598;-77
2022/01/21 14:45:27;;;;;;;18.63;2.40;;;;;;;;;;5068447;28;20139;-77
2022/01/21 14:47:53;;;;;;;17.65;2.20;;;;;;;;;;5051028;28;20036;-77
2022/01/21 14:50:24;;;;;;;18.40;2.30;;;;;;;;;;5051823;28;20496;-77
2022/01/21 14:52:50;;;;;;;21.17;2.47;;;;;;;;;;5068059;28;20526;-76
2022/01/21 14:55:19;;;;;;;11.10;2.10;;;;;;;;;;5068260;28;20393;-77
2022/01/21 14:57:46;;;;;;;21.52;2.70;;;;;;;;;;5067767;28;20074;-76
2022/01/21 15:00:12;;;;;;;17.65;2.22;;;;;;;;;;5068190;28;20525;-77
2022/01/21 15:02:39;;;;;;;16.70;2.15;;;;;;;;;;5068100;28;20120;-77
2022/01/21 15:05:14;;;;;;;15.50;1.85;;;;;;;;;;5050388;28;20044;-77
2022/01/21 15:07:42;;;;;;;21.85;2.08;;;;;;;;;;5067785;28;20056;-76
2022/01/21 15:16:06;;;;;;;17.13;1.70;;;;;;;;;;5067381;28;20480;-77
2022/01/21 15:18:32;;;;;;;16.75;2.15;;;;;;;;;;5050262;28;20093;-77
2022/01/21 15:20:58;;;;;;;25.02;2.05;;;;;;;;;;5067050;28;20037;-77
2022/01/21 15:23:24;;;;;;;9.25;1.42;;;;;;;;;;5067791;28;20124;-77
2022/01/21 15:25:50;;;;;;;14.70;1.83;;;;;;;;;;5050647;28;20400;-77
2022/01/21 15:28:16;;;;;;;12.32;1.50;;;;;;;;;;5068084;28;20555;-77
2022/01/21 15:30:43;;;;;;;10.82;1.67;;;;;;;;;;5067991;28;20539;-77
2022/01/21 15:33:09;;;;;;;11.55;1.73;;;;;;;;;;5050857;28;20488;-77
2022/01/21 15:35:35;;;;;;;9.48;1.58;;;;;;;;;;5067595;28;20503;-77
2022/01/21 15:38:01;;;;;;;15.93;1.65;;;;;;;;;;5067043;28;20037;-77
2022/01/21 15:40:33;;;;;;;15.52;1.60;;;;;;;;;;5067670;28;20048;-77
2022/01/21 15:42:59;;;;;;;17.23;2.08;;;;;;;;;;5051266;28;20049;-76
2022/01/21 15:45:25;;;;;;;16.33;1.50;;;;;;;;;;5067649;28;20043;-76